createdAt,value
2023-03-21T00:02:06.064Z,81.88
2023-03-21T00:07:08.483Z,82.65
2023-03-21T00:12:14.765Z,83.48
2023-03-21T00:17:33.307Z,83.50
2023-03-21T00:22:36.166Z,83.17
2023-03-21T00:27:57.245Z,84.92
2023-03-21T00:33:21.722Z,84.66
2023-03-21T00:38:26.704Z,85.01
2023-03-21T00:43:32.926Z,85.68
2023-03-21T00:48:45.969Z,86.30
2023-03-21T00:53:49.701Z,86.61
2023-03-21T00:58:52.588Z,87.41
2023-03-21T01:04:05.345Z,87.53
2023-03-21T01:09:27.241Z,87.66
2023-03-21T01:14:44.863Z,87.82
2023-03-21T01:19:52.539Z,87.46
2023-03-21T01:25:19.314Z,88.16
2023-03-21T01:30:33.916Z,87.56
2023-03-21T01:36:09.997Z,86.37
2023-03-21T01:41:45.830Z,86.01
2023-03-21T01:47:18.937Z,86.07
2023-03-21T01:52:42.002Z,87.31
2023-03-21T01:58:07.424Z,86.21
2023-03-21T02:03:50.077Z,85.69
2023-03-21T02:09:29.057Z,85.57
2023-03-21T02:14:36.594Z,85.41
2023-03-21T02:19:55.978Z,85.24
2023-03-21T02:25:40.000Z,85.35
2023-03-21T02:31:46.664Z,85.64
2023-03-21T02:37:11.384Z,86.00
2023-03-21T02:42:22.864Z,86.14
2023-03-21T02:47:53.135Z,86.06
2023-03-21T02:53:20.168Z,86.13
2023-03-21T02:58:32.888Z,86.13
2023-03-21T03:04:04.757Z,86.23
2023-03-21T03:09:58.895Z,86.38
2023-03-21T03:15:25.230Z,86.47
2023-03-21T03:21:39.098Z,86.43
2023-03-21T03:27:23.430Z,86.48
2023-03-21T03:33:09.454Z,86.95
2023-03-21T03:38:45.055Z,86.82
2023-03-21T03:44:26.106Z,86.81
2023-03-21T03:50:26.684Z,87.06
2023-03-21T03:55:49.900Z,87.24
2023-03-21T04:01:00.660Z,87.48
2023-03-21T04:06:29.104Z,88.63
2023-03-21T04:12:13.453Z,89.78
2023-03-21T04:17:30.874Z,90.75
2023-03-21T04:22:46.265Z,89.80
2023-03-21T04:28:06.776Z,88.86
2023-03-21T04:33:38.512Z,88.47
2023-03-21T04:39:12.957Z,88.39
2023-03-21T04:44:40.946Z,88.24
2023-03-21T04:49:56.397Z,88.18
2023-03-21T04:55:10.422Z,88.25
2023-03-21T05:00:30.294Z,88.65
2023-03-21T05:05:54.468Z,88.42
2023-03-21T05:10:57.940Z,88.59
2023-03-21T05:16:04.088Z,88.64
2023-03-21T05:21:30.178Z,88.48
2023-03-21T05:26:32.994Z,88.49
2023-03-21T05:31:50.349Z,88.45
2023-03-21T05:37:07.306Z,88.72
2023-03-21T05:42:21.476Z,88.49
2023-03-21T05:47:26.857Z,88.59
2023-03-21T05:52:35.612Z,88.55
2023-03-21T05:57:44.861Z,88.65
2023-03-21T06:03:14.325Z,88.83
2023-03-21T06:09:28.790Z,88.73
2023-03-21T06:14:33.811Z,88.91
2023-03-21T06:20:10.619Z,89.85
2023-03-21T06:25:26.799Z,90.29
2023-03-21T06:30:34.372Z,91.39
2023-03-21T06:36:10.286Z,92.07
2023-03-21T06:41:55.928Z,92.38
2023-03-21T06:47:08.906Z,92.41
2023-03-21T06:52:15.372Z,92.53
2023-03-21T06:57:46.524Z,92.57
2023-03-21T07:02:53.831Z,92.67
2023-03-21T07:08:03.645Z,92.94
2023-03-21T07:13:12.016Z,93.17
2023-03-21T07:18:43.297Z,93.30
2023-03-21T07:23:52.224Z,93.39
2023-03-21T07:29:00.685Z,93.32
2023-03-21T07:34:23.887Z,93.35
2023-03-21T07:39:34.780Z,93.53
2023-03-21T07:45:10.651Z,93.44
2023-03-21T07:50:49.165Z,93.32
2023-03-21T07:56:03.337Z,93.13
2023-03-21T08:01:08.805Z,92.16
2023-03-21T08:06:31.298Z,92.21
2023-03-21T08:11:33.806Z,92.63
2023-03-21T08:16:36.628Z,92.82
2023-03-21T08:21:40.104Z,92.79
2023-03-21T08:26:46.091Z,92.50
2023-03-21T08:31:56.255Z,92.39
2023-03-21T08:37:03.022Z,92.58
2023-03-21T08:42:05.969Z,93.06
2023-03-21T08:47:20.439Z,92.92
2023-03-21T08:52:23.830Z,92.44
2023-03-21T08:57:29.128Z,92.50
2023-03-21T09:02:31.907Z,92.86
2023-03-21T09:07:50.662Z,93.10
2023-03-21T09:12:55.918Z,93.26
2023-03-21T09:18:13.157Z,93.17
2023-03-21T09:23:32.049Z,93.18
2023-03-21T09:28:43.268Z,93.03
2023-03-21T09:33:46.384Z,92.66
2023-03-21T09:38:52.602Z,92.73
2023-03-21T09:44:14.437Z,92.95
2023-03-21T09:50:17.268Z,92.92
2023-03-21T09:55:36.696Z,92.82
2023-03-21T10:00:48.653Z,93.04
2023-03-21T10:06:01.163Z,93.15
2023-03-21T10:11:34.849Z,93.12
2023-03-21T10:16:59.746Z,92.72
2023-03-21T10:22:05.462Z,92.51
2023-03-21T10:27:09.954Z,92.56
2023-03-21T10:32:25.346Z,92.84
2023-03-21T10:37:30.730Z,92.19
2023-03-21T10:42:50.403Z,91.90
2023-03-21T10:47:55.918Z,92.01
2023-03-21T10:53:01.837Z,91.84
2023-03-21T10:58:10.915Z,91.99
2023-03-21T11:03:34.255Z,91.69
2023-03-21T11:09:03.816Z,90.82
2023-03-21T11:14:09.584Z,89.71
2023-03-21T11:19:16.151Z,90.01
2023-03-21T11:24:20.200Z,90.13
2023-03-21T11:29:39.278Z,91.06
2023-03-21T11:34:48.836Z,91.02
2023-03-21T11:40:36.438Z,90.57
2023-03-21T11:45:58.826Z,90.17
2023-03-21T11:51:19.224Z,90.48
2023-03-21T11:56:49.551Z,88.76
2023-03-21T12:02:16.528Z,89.90
2023-03-21T12:07:44.166Z,89.69
2023-03-21T12:13:03.926Z,89.39
2023-03-21T12:19:00.919Z,89.69
2023-03-21T12:24:18.614Z,90.02
2023-03-21T12:29:28.185Z,90.73
2023-03-21T12:34:36.615Z,90.14
2023-03-21T12:39:40.875Z,89.60
2023-03-21T12:44:52.359Z,90.49
2023-03-21T12:50:13.906Z,89.09
2023-03-21T12:55:23.963Z,87.18
2023-03-21T13:00:28.758Z,87.50
2023-03-21T13:05:55.207Z,89.63
2023-03-21T13:11:00.254Z,88.39
2023-03-21T13:16:23.556Z,90.05
2023-03-21T13:21:55.786Z,87.44
2023-03-21T13:27:21.105Z,88.72
2023-03-21T13:32:39.179Z,89.67
2023-03-21T13:37:51.817Z,90.28
2023-03-21T13:43:22.113Z,87.07
2023-03-21T13:48:49.431Z,88.29
2023-03-21T13:54:17.642Z,87.21
2023-03-21T13:59:38.328Z,88.19
2023-03-21T14:05:00.191Z,88.73
2023-03-21T14:10:35.675Z,87.05
2023-03-21T14:16:12.765Z,87.40
2023-03-21T14:21:24.370Z,88.69
2023-03-21T14:32:24.904Z,88.84
2023-03-21T14:37:41.164Z,85.41
2023-03-21T14:42:48.500Z,85.71
2023-03-21T14:48:18.837Z,88.28
2023-03-21T14:53:30.577Z,85.99
2023-03-21T14:58:46.200Z,88.68
2023-03-21T15:03:53.099Z,84.08
2023-03-21T15:09:04.192Z,82.04
2023-03-21T15:14:30.385Z,85.50
2023-03-21T15:19:37.418Z,87.60
2023-03-21T15:24:55.913Z,87.06
2023-03-21T15:29:58.807Z,85.20
2023-03-21T15:35:08.705Z,88.52
2023-03-21T15:40:37.414Z,90.48
2023-03-21T15:45:56.202Z,88.47
2023-03-21T15:51:05.978Z,85.66
2023-03-21T15:56:20.263Z,84.52
2023-03-21T16:01:26.553Z,83.34
2023-03-21T16:06:35.221Z,84.62
2023-03-21T16:11:49.392Z,81.87
2023-03-21T16:16:51.660Z,81.56
2023-03-21T16:21:54.262Z,84.99
2023-03-21T16:26:59.314Z,86.31
2023-03-21T16:32:06.136Z,87.36
2023-03-21T16:37:12.367Z,89.22
2023-03-21T16:42:14.633Z,90.22
2023-03-21T16:47:23.840Z,89.40
2023-03-21T16:52:50.418Z,90.18
2023-03-21T16:57:53.982Z,91.31
2023-03-21T17:03:03.018Z,90.27
2023-03-21T17:08:06.513Z,88.91
2023-03-21T17:13:08.676Z,88.79
2023-03-21T17:18:21.204Z,88.37
2023-03-21T17:23:23.542Z,89.31
2023-03-21T17:28:28.243Z,90.02
2023-03-21T17:33:33.246Z,90.94
2023-03-21T17:38:51.564Z,89.44
2023-03-21T17:44:03.126Z,90.61
2023-03-21T17:49:06.525Z,90.62
2023-03-21T17:54:09.484Z,91.08
2023-03-21T17:59:14.258Z,90.39
2023-03-21T18:04:21.581Z,89.72
2023-03-21T18:09:58.014Z,87.24
2023-03-21T18:15:04.196Z,86.66
2023-03-21T18:20:10.339Z,85.85
2023-03-21T18:25:20.519Z,85.47
2023-03-21T18:30:56.937Z,86.60
2023-03-21T18:36:13.600Z,86.86
2023-03-21T18:41:19.829Z,85.02
2023-03-21T18:46:30.518Z,84.12
2023-03-21T18:51:33.014Z,84.87
2023-03-21T18:57:27.464Z,85.90
2023-03-21T19:02:03.237Z,86.50
2023-03-21T19:07:08.091Z,84.42
2023-03-21T19:12:10.556Z,85.38
2023-03-21T19:18:15.299Z,87.26
2023-03-21T19:22:45.157Z,86.44
2023-03-21T19:28:00.738Z,86.23
2023-03-21T19:33:05.302Z,85.99
2023-03-21T19:38:07.926Z,85.64
2023-03-21T19:43:32.126Z,85.88
2023-03-21T19:48:44.814Z,88.42
2023-03-21T19:53:50.318Z,90.32
2023-03-21T19:58:52.995Z,91.68
2023-03-21T20:03:58.798Z,92.21
2023-03-21T20:14:24.871Z,92.78
2023-03-21T20:19:27.239Z,92.90
2023-03-21T20:24:31.648Z,93.04
2023-03-21T20:30:10.777Z,93.14
2023-03-21T20:36:16.392Z,93.23
2023-03-21T20:40:55.369Z,93.34
2023-03-21T20:46:12.793Z,93.41
2023-03-21T20:56:42.895Z,93.54
2023-03-21T21:01:45.230Z,93.60
2023-03-21T21:06:50.903Z,93.63
2023-03-21T21:12:06.562Z,93.65
2023-03-21T21:22:59.649Z,93.69
2023-03-21T21:28:09.170Z,93.74
2023-03-21T21:33:11.473Z,93.78
2023-03-21T21:38:23.443Z,93.78
2023-03-21T21:43:27.842Z,93.47
2023-03-21T21:48:34.124Z,93.46
2023-03-21T21:53:36.951Z,93.24
2023-03-21T21:58:46.089Z,92.90
2023-03-21T22:03:48.684Z,92.85
2023-03-21T22:08:52.133Z,92.94
2023-03-21T22:14:01.686Z,93.13
2023-03-21T22:19:04.305Z,93.06
2023-03-21T22:24:09.803Z,92.56
2023-03-21T22:29:14.645Z,92.23
2023-03-21T22:34:17.140Z,92.54
2023-03-21T22:39:26.481Z,92.93
2023-03-21T22:44:38.934Z,93.07
2023-03-21T22:49:46.368Z,93.07
2023-03-21T22:54:55.662Z,92.89
2023-03-21T23:00:01.454Z,93.13
2023-03-21T23:05:08.971Z,93.25
2023-03-21T23:10:13.446Z,93.27
2023-03-21T23:15:25.429Z,93.28
2023-03-21T23:20:27.627Z,93.29
2023-03-21T23:25:55.739Z,93.38
2023-03-21T23:30:58.210Z,93.46
2023-03-21T23:36:03.435Z,93.42
2023-03-21T23:41:18.950Z,93.48
2023-03-21T23:46:23.686Z,93.50
2023-03-21T23:51:28.889Z,93.54
2023-03-21T23:56:35.763Z,93.74
